sensor_id;sensor_type;location;lat;lon;timestamp;P1;durP1;ratioP1;P2;durP2;ratioP2
69795;SDS011;57073;45.650;9.612;2023-10-09T00:04:42;8.38;;;1.85;;
69795;SDS011;57073;45.650;9.612;2023-10-09T00:09:45;5.73;;;2.07;;
69795;SDS011;57073;45.650;9.612;2023-10-09T00:14:49;7.15;;;1.90;;
69795;SDS011;57073;45.650;9.612;2023-10-09T00:19:50;9.93;;;2.08;;
69795;SDS011;57073;45.650;9.612;2023-10-09T00:24:55;8.90;;;2.47;;
69795;SDS011;57073;45.650;9.612;2023-10-09T00:30:12;13.45;;;2.30;;
69795;SDS011;57073;45.650;9.612;2023-10-09T00:35:18;8.37;;;2.57;;
69795;SDS011;57073;45.650;9.612;2023-10-09T00:40:38;9.88;;;1.83;;
69795;SDS011;57073;45.650;9.612;2023-10-09T00:45:45;10.67;;;2.00;;
69795;SDS011;57073;45.650;9.612;2023-10-09T00:50:47;10.13;;;1.60;;
69795;SDS011;57073;45.650;9.612;2023-10-09T00:55:52;9.55;;;2.13;;
69795;SDS011;57073;45.650;9.612;2023-10-09T01:00:56;9.73;;;2.07;;
69795;SDS011;57073;45.650;9.612;2023-10-09T01:06:00;9.98;;;1.95;;
69795;SDS011;57073;45.650;9.612;2023-10-09T01:11:11;12.65;;;1.60;;
69795;SDS011;57073;45.650;9.612;2023-10-09T01:16:23;11.80;;;2.27;;
69795;SDS011;57073;45.650;9.612;2023-10-09T01:21:24;12.80;;;1.93;;
69795;SDS011;57073;45.650;9.612;2023-10-09T01:26:26;9.52;;;1.85;;
69795;SDS011;57073;45.650;9.612;2023-10-09T01:31:26;11.00;;;2.00;;
69795;SDS011;57073;45.650;9.612;2023-10-09T01:36:27;7.80;;;1.57;;
69795;SDS011;57073;45.650;9.612;2023-10-09T01:41:34;10.70;;;1.48;;
69795;SDS011;57073;45.650;9.612;2023-10-09T01:46:34;5.53;;;1.60;;
69795;SDS011;57073;45.650;9.612;2023-10-09T01:51:34;7.70;;;1.50;;
69795;SDS011;57073;45.650;9.612;2023-10-09T01:56:36;7.10;;;1.75;;
69795;SDS011;57073;45.650;9.612;2023-10-09T02:01:39;11.50;;;2.07;;
69795;SDS011;57073;45.650;9.612;2023-10-09T02:06:47;12.05;;;1.52;;
69795;SDS011;57073;45.650;9.612;2023-10-09T02:11:52;9.60;;;1.77;;
69795;SDS011;57073;45.650;9.612;2023-10-09T02:16:52;6.23;;;1.57;;
69795;SDS011;57073;45.650;9.612;2023-10-09T02:22:11;9.67;;;1.47;;
69795;SDS011;57073;45.650;9.612;2023-10-09T02:27:18;9.07;;;1.40;;
69795;SDS011;57073;45.650;9.612;2023-10-09T02:32:38;8.33;;;1.33;;
69795;SDS011;57073;45.650;9.612;2023-10-09T02:37:40;11.07;;;1.90;;
69795;SDS011;57073;45.650;9.612;2023-10-09T02:42:40;9.50;;;1.47;;
69795;SDS011;57073;45.650;9.612;2023-10-09T02:47:43;10.48;;;2.15;;
69795;SDS011;57073;45.650;9.612;2023-10-09T02:52:48;7.25;;;1.20;;
69795;SDS011;57073;45.650;9.612;2023-10-09T02:57:53;12.50;;;1.50;;
69795;SDS011;57073;45.650;9.612;2023-10-09T03:03:10;7.80;;;2.92;;
69795;SDS011;57073;45.650;9.612;2023-10-09T03:08:10;13.93;;;1.67;;
69795;SDS011;57073;45.650;9.612;2023-10-09T03:13:13;7.33;;;1.30;;
69795;SDS011;57073;45.650;9.612;2023-10-09T03:18:19;5.83;;;1.10;;
69795;SDS011;57073;45.650;9.612;2023-10-09T03:23:20;10.85;;;1.55;;
69795;SDS011;57073;45.650;9.612;2023-10-09T03:28:20;8.60;;;1.30;;
69795;SDS011;57073;45.650;9.612;2023-10-09T03:33:21;7.70;;;1.70;;
69795;SDS011;57073;45.650;9.612;2023-10-09T03:38:23;6.73;;;1.37;;
69795;SDS011;57073;45.650;9.612;2023-10-09T03:43:24;9.52;;;1.67;;
69795;SDS011;57073;45.650;9.612;2023-10-09T03:48:24;7.73;;;1.30;;
69795;SDS011;57073;45.650;9.612;2023-10-09T03:53:32;13.00;;;2.50;;
69795;SDS011;57073;45.650;9.612;2023-10-09T03:58:32;8.20;;;1.70;;
69795;SDS011;57073;45.650;9.612;2023-10-09T04:03:34;7.60;;;1.50;;
69795;SDS011;57073;45.650;9.612;2023-10-09T04:08:36;10.30;;;1.70;;
69795;SDS011;57073;45.650;9.612;2023-10-09T04:13:39;8.52;;;1.75;;
69795;SDS011;57073;45.650;9.612;2023-10-09T04:18:40;11.23;;;1.57;;
69795;SDS011;57073;45.650;9.612;2023-10-09T04:23:45;10.07;;;1.50;;
69795;SDS011;57073;45.650;9.612;2023-10-09T04:29:04;10.27;;;1.40;;
69795;SDS011;57073;45.650;9.612;2023-10-09T04:34:06;10.10;;;1.75;;
69795;SDS011;57073;45.650;9.612;2023-10-09T04:39:22;11.55;;;2.15;;
69795;SDS011;57073;45.650;9.612;2023-10-09T04:44:31;9.77;;;1.70;;
69795;SDS011;57073;45.650;9.612;2023-10-09T04:49:37;9.10;;;1.40;;
69795;SDS011;57073;45.650;9.612;2023-10-09T04:54:56;6.10;;;1.40;;
69795;SDS011;57073;45.650;9.612;2023-10-09T05:00:10;10.30;;;1.43;;
69795;SDS011;57073;45.650;9.612;2023-10-09T05:05:26;8.07;;;1.47;;
69795;SDS011;57073;45.650;9.612;2023-10-09T05:10:38;8.85;;;1.55;;
69795;SDS011;57073;45.650;9.612;2023-10-09T05:15:53;6.93;;;1.50;;
69795;SDS011;57073;45.650;9.612;2023-10-09T05:20:56;9.18;;;1.92;;
69795;SDS011;57073;45.650;9.612;2023-10-09T05:26:06;8.32;;;1.90;;
69795;SDS011;57073;45.650;9.612;2023-10-09T05:31:26;9.10;;;1.70;;
69795;SDS011;57073;45.650;9.612;2023-10-09T05:36:55;11.43;;;1.50;;
69795;SDS011;57073;45.650;9.612;2023-10-09T05:42:11;7.90;;;1.52;;
69795;SDS011;57073;45.650;9.612;2023-10-09T05:47:17;10.20;;;1.87;;
69795;SDS011;57073;45.650;9.612;2023-10-09T05:52:31;8.75;;;1.80;;
69795;SDS011;57073;45.650;9.612;2023-10-09T05:57:37;9.53;;;1.70;;
69795;SDS011;57073;45.650;9.612;2023-10-09T06:03:04;13.85;;;1.88;;
69795;SDS011;57073;45.650;9.612;2023-10-09T06:08:20;12.05;;;2.10;;
69795;SDS011;57073;45.650;9.612;2023-10-09T06:13:39;9.23;;;1.70;;
69795;SDS011;57073;45.650;9.612;2023-10-09T06:18:46;9.32;;;1.80;;
69795;SDS011;57073;45.650;9.612;2023-10-09T06:24:10;11.18;;;1.52;;
69795;SDS011;57073;45.650;9.612;2023-10-09T06:29:16;11.23;;;1.50;;
69795;SDS011;57073;45.650;9.612;2023-10-09T06:34:33;13.65;;;2.17;;
69795;SDS011;57073;45.650;9.612;2023-10-09T06:39:35;7.83;;;1.63;;
69795;SDS011;57073;45.650;9.612;2023-10-09T06:44:50;8.98;;;1.70;;
69795;SDS011;57073;45.650;9.612;2023-10-09T06:49:53;13.48;;;2.03;;
69795;SDS011;57073;45.650;9.612;2023-10-09T06:55:12;9.77;;;1.87;;
69795;SDS011;57073;45.650;9.612;2023-10-09T07:00:20;13.15;;;2.15;;
69795;SDS011;57073;45.650;9.612;2023-10-09T07:05:39;9.00;;;1.97;;
69795;SDS011;57073;45.650;9.612;2023-10-09T07:11:00;12.82;;;2.33;;
69795;SDS011;57073;45.650;9.612;2023-10-09T07:16:21;11.25;;;2.10;;
69795;SDS011;57073;45.650;9.612;2023-10-09T07:21:28;12.53;;;2.40;;
69795;SDS011;57073;45.650;9.612;2023-10-09T07:26:29;12.87;;;1.80;;
69795;SDS011;57073;45.650;9.612;2023-10-09T07:31:48;11.93;;;1.90;;
69795;SDS011;57073;45.650;9.612;2023-10-09T07:36:57;11.35;;;2.78;;
69795;SDS011;57073;45.650;9.612;2023-10-09T07:41:57;10.47;;;2.57;;
69795;SDS011;57073;45.650;9.612;2023-10-09T07:47:15;12.03;;;2.23;;
69795;SDS011;57073;45.650;9.612;2023-10-09T07:52:20;12.23;;;2.55;;
69795;SDS011;57073;45.650;9.612;2023-10-09T07:57:23;12.27;;;2.45;;
69795;SDS011;57073;45.650;9.612;2023-10-09T08:02:29;11.70;;;2.47;;
69795;SDS011;57073;45.650;9.612;2023-10-09T08:07:32;13.43;;;2.30;;
69795;SDS011;57073;45.650;9.612;2023-10-09T08:12:36;11.70;;;2.77;;
69795;SDS011;57073;45.650;9.612;2023-10-09T08:17:57;12.15;;;2.60;;
69795;SDS011;57073;45.650;9.612;2023-10-09T08:23:09;12.63;;;2.47;;
69795;SDS011;57073;45.650;9.612;2023-10-09T08:28:22;15.73;;;2.47;;
69795;SDS011;57073;45.650;9.612;2023-10-09T08:33:22;18.73;;;3.17;;
69795;SDS011;57073;45.650;9.612;2023-10-09T08:38:25;10.65;;;2.55;;
69795;SDS011;57073;45.650;9.612;2023-10-09T08:43:26;15.25;;;2.50;;
69795;SDS011;57073;45.650;9.612;2023-10-09T08:48:32;12.33;;;2.43;;
69795;SDS011;57073;45.650;9.612;2023-10-09T08:53:37;13.40;;;2.40;;
69795;SDS011;57073;45.650;9.612;2023-10-09T08:58:42;15.53;;;2.30;;
69795;SDS011;57073;45.650;9.612;2023-10-09T09:03:43;11.00;;;2.23;;
69795;SDS011;57073;45.650;9.612;2023-10-09T09:08:44;13.47;;;2.60;;
69795;SDS011;57073;45.650;9.612;2023-10-09T09:13:46;12.93;;;2.72;;
69795;SDS011;57073;45.650;9.612;2023-10-09T09:24:05;9.93;;;2.60;;
69795;SDS011;57073;45.650;9.612;2023-10-09T09:29:16;11.45;;;3.10;;
69795;SDS011;57073;45.650;9.612;2023-10-09T09:34:18;10.40;;;3.20;;
69795;SDS011;57073;45.650;9.612;2023-10-09T09:39:26;10.30;;;3.13;;
69795;SDS011;57073;45.650;9.612;2023-10-09T09:44:27;15.88;;;3.33;;
69795;SDS011;57073;45.650;9.612;2023-10-09T09:49:32;10.73;;;2.80;;
69795;SDS011;57073;45.650;9.612;2023-10-09T09:54:33;11.00;;;2.60;;
69795;SDS011;57073;45.650;9.612;2023-10-09T09:59:40;10.63;;;2.35;;
69795;SDS011;57073;45.650;9.612;2023-10-09T10:04:41;17.80;;;2.63;;
69795;SDS011;57073;45.650;9.612;2023-10-09T10:09:44;14.13;;;2.90;;
69795;SDS011;57073;45.650;9.612;2023-10-09T10:14:54;13.68;;;2.65;;
69795;SDS011;57073;45.650;9.612;2023-10-09T10:30:35;13.57;;;2.60;;
69795;SDS011;57073;45.650;9.612;2023-10-09T10:35:46;8.17;;;2.03;;
69795;SDS011;57073;45.650;9.612;2023-10-09T10:40:46;11.13;;;2.20;;
69795;SDS011;57073;45.650;9.612;2023-10-09T10:45:46;13.27;;;3.00;;
69795;SDS011;57073;45.650;9.612;2023-10-09T10:50:47;19.17;;;2.60;;
69795;SDS011;57073;45.650;9.612;2023-10-09T11:01:13;6.45;;;2.25;;
69795;SDS011;57073;45.650;9.612;2023-10-09T11:06:23;11.40;;;2.22;;
69795;SDS011;57073;45.650;9.612;2023-10-09T11:11:42;17.33;;;2.83;;
69795;SDS011;57073;45.650;9.612;2023-10-09T11:16:46;15.38;;;2.55;;
69795;SDS011;57073;45.650;9.612;2023-10-09T11:21:50;13.82;;;2.90;;
69795;SDS011;57073;45.650;9.612;2023-10-09T11:26:58;13.53;;;3.03;;
69795;SDS011;57073;45.650;9.612;2023-10-09T11:32:06;12.55;;;2.55;;
69795;SDS011;57073;45.650;9.612;2023-10-09T11:42:14;21.65;;;3.90;;
69795;SDS011;57073;45.650;9.612;2023-10-09T11:47:14;13.93;;;3.05;;
69795;SDS011;57073;45.650;9.612;2023-10-09T11:52:23;13.18;;;3.58;;
69795;SDS011;57073;45.650;9.612;2023-10-09T11:57:36;10.70;;;2.23;;
69795;SDS011;57073;45.650;9.612;2023-10-09T12:02:38;10.23;;;2.63;;
69795;SDS011;57073;45.650;9.612;2023-10-09T12:07:47;15.80;;;3.50;;
69795;SDS011;57073;45.650;9.612;2023-10-09T12:12:54;16.90;;;3.57;;
69795;SDS011;57073;45.650;9.612;2023-10-09T12:17:57;15.70;;;4.18;;
69795;SDS011;57073;45.650;9.612;2023-10-09T12:22:59;17.90;;;5.90;;
69795;SDS011;57073;45.650;9.612;2023-10-09T12:28:00;16.43;;;6.03;;
69795;SDS011;57073;45.650;9.612;2023-10-09T12:33:03;16.30;;;3.73;;
69795;SDS011;57073;45.650;9.612;2023-10-09T12:38:07;11.82;;;3.17;;
69795;SDS011;57073;45.650;9.612;2023-10-09T12:43:10;13.40;;;3.20;;
69795;SDS011;57073;45.650;9.612;2023-10-09T12:48:18;17.77;;;3.07;;
69795;SDS011;57073;45.650;9.612;2023-10-09T12:53:19;11.93;;;2.53;;
69795;SDS011;57073;45.650;9.612;2023-10-09T12:58:19;9.27;;;2.93;;
69795;SDS011;57073;45.650;9.612;2023-10-09T13:03:21;10.98;;;2.40;;
69795;SDS011;57073;45.650;9.612;2023-10-09T13:08:28;19.37;;;4.23;;
69795;SDS011;57073;45.650;9.612;2023-10-09T13:13:31;13.10;;;3.30;;
69795;SDS011;57073;45.650;9.612;2023-10-09T13:18:41;11.32;;;2.65;;
69795;SDS011;57073;45.650;9.612;2023-10-09T13:23:50;14.77;;;3.13;;
69795;SDS011;57073;45.650;9.612;2023-10-09T13:28:51;11.40;;;2.53;;
69795;SDS011;57073;45.650;9.612;2023-10-09T13:33:55;15.80;;;3.45;;
69795;SDS011;57073;45.650;9.612;2023-10-09T13:38:56;13.80;;;2.50;;
69795;SDS011;57073;45.650;9.612;2023-10-09T13:43:57;16.43;;;3.23;;
69795;SDS011;57073;45.650;9.612;2023-10-09T13:48:57;18.03;;;3.40;;
69795;SDS011;57073;45.650;9.612;2023-10-09T13:53:58;13.37;;;2.80;;
69795;SDS011;57073;45.650;9.612;2023-10-09T13:58:58;12.33;;;2.80;;
69795;SDS011;57073;45.650;9.612;2023-10-09T14:04:00;17.08;;;2.40;;
69795;SDS011;57073;45.650;9.612;2023-10-09T14:09:04;10.97;;;2.67;;
69795;SDS011;57073;45.650;9.612;2023-10-09T14:14:05;11.70;;;2.53;;
69795;SDS011;57073;45.650;9.612;2023-10-09T14:19:09;11.37;;;2.67;;
69795;SDS011;57073;45.650;9.612;2023-10-09T14:24:13;10.95;;;2.50;;
69795;SDS011;57073;45.650;9.612;2023-10-09T14:29:17;12.10;;;2.83;;
69795;SDS011;57073;45.650;9.612;2023-10-09T14:34:19;13.90;;;2.73;;
69795;SDS011;57073;45.650;9.612;2023-10-09T14:39:21;18.75;;;2.90;;
69795;SDS011;57073;45.650;9.612;2023-10-09T14:44:27;14.80;;;2.85;;
69795;SDS011;57073;45.650;9.612;2023-10-09T14:49:30;16.43;;;2.97;;
69795;SDS011;57073;45.650;9.612;2023-10-09T14:54:35;12.43;;;3.22;;
69795;SDS011;57073;45.650;9.612;2023-10-09T14:59:39;14.15;;;2.53;;
69795;SDS011;57073;45.650;9.612;2023-10-09T15:04:40;17.80;;;3.50;;
69795;SDS011;57073;45.650;9.612;2023-10-09T15:09:40;15.87;;;3.63;;
69795;SDS011;57073;45.650;9.612;2023-10-09T15:14:41;13.53;;;2.50;;
69795;SDS011;57073;45.650;9.612;2023-10-09T15:19:41;16.63;;;3.13;;
69795;SDS011;57073;45.650;9.612;2023-10-09T15:24:41;16.70;;;2.50;;
69795;SDS011;57073;45.650;9.612;2023-10-09T15:29:43;15.85;;;2.88;;
69795;SDS011;57073;45.650;9.612;2023-10-09T15:34:45;13.97;;;2.90;;
69795;SDS011;57073;45.650;9.612;2023-10-09T15:39:45;15.70;;;2.97;;
69795;SDS011;57073;45.650;9.612;2023-10-09T15:44:45;14.63;;;3.37;;
69795;SDS011;57073;45.650;9.612;2023-10-09T15:49:47;17.03;;;3.43;;
69795;SDS011;57073;45.650;9.612;2023-10-09T15:54:48;17.40;;;3.20;;
69795;SDS011;57073;45.650;9.612;2023-10-09T15:59:49;14.33;;;2.90;;
69795;SDS011;57073;45.650;9.612;2023-10-09T16:04:50;15.27;;;3.00;;
69795;SDS011;57073;45.650;9.612;2023-10-09T16:09:50;15.10;;;3.00;;
69795;SDS011;57073;45.650;9.612;2023-10-09T16:14:51;14.03;;;2.97;;
69795;SDS011;57073;45.650;9.612;2023-10-09T16:19:53;9.63;;;2.50;;
69795;SDS011;57073;45.650;9.612;2023-10-09T16:24:55;14.00;;;3.05;;
69795;SDS011;57073;45.650;9.612;2023-10-09T16:29:59;16.80;;;2.90;;
69795;SDS011;57073;45.650;9.612;2023-10-09T16:35:05;15.17;;;2.57;;
69795;SDS011;57073;45.650;9.612;2023-10-09T16:40:10;11.25;;;2.47;;
69795;SDS011;57073;45.650;9.612;2023-10-09T16:45:13;13.00;;;3.00;;
69795;SDS011;57073;45.650;9.612;2023-10-09T16:50:15;12.97;;;2.60;;
69795;SDS011;57073;45.650;9.612;2023-10-09T16:55:16;18.17;;;3.75;;
69795;SDS011;57073;45.650;9.612;2023-10-09T17:00:18;15.97;;;3.20;;
69795;SDS011;57073;45.650;9.612;2023-10-09T17:05:28;12.63;;;3.05;;
69795;SDS011;57073;45.650;9.612;2023-10-09T17:10:33;17.85;;;3.97;;
69795;SDS011;57073;45.650;9.612;2023-10-09T17:15:35;15.97;;;3.67;;
69795;SDS011;57073;45.650;9.612;2023-10-09T17:20:41;14.68;;;3.05;;
69795;SDS011;57073;45.650;9.612;2023-10-09T17:25:48;16.53;;;3.50;;
69795;SDS011;57073;45.650;9.612;2023-10-09T17:31:00;19.13;;;4.05;;
69795;SDS011;57073;45.650;9.612;2023-10-09T17:36:04;17.25;;;3.60;;
69795;SDS011;57073;45.650;9.612;2023-10-09T17:41:06;19.30;;;3.73;;
69795;SDS011;57073;45.650;9.612;2023-10-09T17:46:08;14.63;;;3.70;;
69795;SDS011;57073;45.650;9.612;2023-10-09T17:51:11;16.48;;;3.25;;
69795;SDS011;57073;45.650;9.612;2023-10-09T17:56:12;13.13;;;3.63;;
69795;SDS011;57073;45.650;9.612;2023-10-09T18:01:12;16.00;;;3.10;;
69795;SDS011;57073;45.650;9.612;2023-10-09T18:06:13;18.50;;;3.80;;
69795;SDS011;57073;45.650;9.612;2023-10-09T18:11:16;15.23;;;3.78;;
69795;SDS011;57073;45.650;9.612;2023-10-09T18:16:17;14.83;;;2.93;;
69795;SDS011;57073;45.650;9.612;2023-10-09T18:21:17;8.50;;;3.00;;
69795;SDS011;57073;45.650;9.612;2023-10-09T18:26:19;12.80;;;3.03;;
69795;SDS011;57073;45.650;9.612;2023-10-09T18:31:20;14.15;;;2.88;;
69795;SDS011;57073;45.650;9.612;2023-10-09T18:36:20;15.43;;;2.90;;
69795;SDS011;57073;45.650;9.612;2023-10-09T18:41:21;11.70;;;2.70;;
69795;SDS011;57073;45.650;9.612;2023-10-09T18:46:23;14.97;;;2.73;;
69795;SDS011;57073;45.650;9.612;2023-10-09T18:51:24;13.90;;;3.35;;
69795;SDS011;57073;45.650;9.612;2023-10-09T18:56:25;13.05;;;2.50;;
69795;SDS011;57073;45.650;9.612;2023-10-09T19:01:28;10.97;;;2.70;;
69795;SDS011;57073;45.650;9.612;2023-10-09T19:06:29;13.82;;;2.85;;
69795;SDS011;57073;45.650;9.612;2023-10-09T19:11:29;9.73;;;2.97;;
69795;SDS011;57073;45.650;9.612;2023-10-09T19:16:32;13.70;;;2.88;;
69795;SDS011;57073;45.650;9.612;2023-10-09T19:21:32;16.97;;;2.90;;
69795;SDS011;57073;45.650;9.612;2023-10-09T19:26:34;18.67;;;2.93;;
69795;SDS011;57073;45.650;9.612;2023-10-09T19:31:35;12.48;;;2.67;;
69795;SDS011;57073;45.650;9.612;2023-10-09T19:36:36;13.80;;;3.33;;
69795;SDS011;57073;45.650;9.612;2023-10-09T19:41:38;15.27;;;2.83;;
69795;SDS011;57073;45.650;9.612;2023-10-09T19:46:38;10.10;;;2.80;;
69795;SDS011;57073;45.650;9.612;2023-10-09T19:51:39;9.27;;;2.27;;
69795;SDS011;57073;45.650;9.612;2023-10-09T19:56:41;13.63;;;3.10;;
69795;SDS011;57073;45.650;9.612;2023-10-09T20:01:42;16.73;;;2.87;;
69795;SDS011;57073;45.650;9.612;2023-10-09T20:06:43;11.85;;;2.35;;
69795;SDS011;57073;45.650;9.612;2023-10-09T20:11:45;9.60;;;2.30;;
69795;SDS011;57073;45.650;9.612;2023-10-09T20:16:45;16.85;;;2.10;;
69795;SDS011;57073;45.650;9.612;2023-10-09T20:21:48;13.30;;;2.43;;
69795;SDS011;57073;45.650;9.612;2023-10-09T20:26:48;10.77;;;2.50;;
69795;SDS011;57073;45.650;9.612;2023-10-09T20:31:49;11.95;;;2.45;;
69795;SDS011;57073;45.650;9.612;2023-10-09T20:36:49;10.97;;;2.13;;
69795;SDS011;57073;45.650;9.612;2023-10-09T20:41:55;14.00;;;2.30;;
69795;SDS011;57073;45.650;9.612;2023-10-09T20:46:56;11.33;;;2.57;;
69795;SDS011;57073;45.650;9.612;2023-10-09T20:51:56;8.33;;;2.20;;
69795;SDS011;57073;45.650;9.612;2023-10-09T20:56:57;15.20;;;2.83;;
69795;SDS011;57073;45.650;9.612;2023-10-09T21:01:57;13.23;;;2.63;;
69795;SDS011;57073;45.650;9.612;2023-10-09T21:06:57;10.57;;;2.10;;
69795;SDS011;57073;45.650;9.612;2023-10-09T21:11:58;10.67;;;2.17;;
69795;SDS011;57073;45.650;9.612;2023-10-09T21:16:59;8.52;;;1.80;;
69795;SDS011;57073;45.650;9.612;2023-10-09T21:21:59;11.67;;;2.60;;
69795;SDS011;57073;45.650;9.612;2023-10-09T21:27:00;11.47;;;2.40;;
69795;SDS011;57073;45.650;9.612;2023-10-09T21:32:00;8.17;;;2.00;;
69795;SDS011;57073;45.650;9.612;2023-10-09T21:37:00;12.90;;;2.20;;
69795;SDS011;57073;45.650;9.612;2023-10-09T21:42:01;15.37;;;2.40;;
69795;SDS011;57073;45.650;9.612;2023-10-09T21:47:07;12.75;;;2.38;;
69795;SDS011;57073;45.650;9.612;2023-10-09T21:52:07;13.33;;;2.40;;
69795;SDS011;57073;45.650;9.612;2023-10-09T21:57:09;10.50;;;2.43;;
69795;SDS011;57073;45.650;9.612;2023-10-09T22:02:09;10.85;;;2.08;;
69795;SDS011;57073;45.650;9.612;2023-10-09T22:07:13;11.43;;;2.40;;
69795;SDS011;57073;45.650;9.612;2023-10-09T22:12:14;11.93;;;2.30;;
69795;SDS011;57073;45.650;9.612;2023-10-09T22:17:16;10.93;;;2.55;;
69795;SDS011;57073;45.650;9.612;2023-10-09T22:22:22;7.90;;;2.10;;
69795;SDS011;57073;45.650;9.612;2023-10-09T22:27:23;11.67;;;1.93;;
69795;SDS011;57073;45.650;9.612;2023-10-09T22:32:26;11.25;;;2.13;;
69795;SDS011;57073;45.650;9.612;2023-10-09T22:37:29;11.03;;;2.17;;
69795;SDS011;57073;45.650;9.612;2023-10-09T22:42:37;12.17;;;2.20;;
69795;SDS011;57073;45.650;9.612;2023-10-09T22:47:37;11.57;;;2.07;;
69795;SDS011;57073;45.650;9.612;2023-10-09T22:52:45;8.02;;;2.20;;
69795;SDS011;57073;45.650;9.612;2023-10-09T22:57:46;10.97;;;2.27;;
69795;SDS011;57073;45.650;9.612;2023-10-09T23:02:46;9.60;;;2.07;;
69795;SDS011;57073;45.650;9.612;2023-10-09T23:07:56;11.40;;;2.73;;
69795;SDS011;57073;45.650;9.612;2023-10-09T23:13:00;8.20;;;2.30;;
69795;SDS011;57073;45.650;9.612;2023-10-09T23:18:14;13.30;;;2.30;;
69795;SDS011;57073;45.650;9.612;2023-10-09T23:23:32;13.57;;;2.30;;
69795;SDS011;57073;45.650;9.612;2023-10-09T23:28:36;12.65;;;2.50;;
69795;SDS011;57073;45.650;9.612;2023-10-09T23:33:37;10.87;;;2.50;;
69795;SDS011;57073;45.650;9.612;2023-10-09T23:38:38;15.37;;;2.30;;
69795;SDS011;57073;45.650;9.612;2023-10-09T23:43:58;14.77;;;3.23;;
69795;SDS011;57073;45.650;9.612;2023-10-09T23:48:59;12.50;;;2.77;;
69795;SDS011;57073;45.650;9.612;2023-10-09T23:54:00;16.33;;;3.72;;
69795;SDS011;57073;45.650;9.612;2023-10-09T23:59:11;14.17;;;3.07;;
